[2025-02-17 00:00:00, 2025-02-17 23:59:59] previous next
| time | temperature | air pressure | humidity | solar radiation | wind speed |
|---|---|---|---|---|---|
| 2025-02-17 07:17:31 | -3.2 | 1014.4 | 94.0 | 0.0 | 0.0 |
| 2025-02-17 07:40:18 | -2.1 | 1014.7 | 89.0 | 19.9 | 0.1 |
| 2025-02-17 08:00:17 | -1.6 | 1014.7 | 88.0 | 23.4 | 0.6 |
| 2025-02-17 08:20:17 | -1.1 | 1014.7 | 86.0 | 26.5 | 0.8 |
| 2025-02-17 08:40:17 | -0.5 | 1014.7 | 84.0 | 28.9 | 1.1 |
| 2025-02-17 09:00:17 | -0.1 | 1015.1 | 82.0 | 30.8 | 1.3 |
| 2025-02-17 09:20:17 | 0.0 | 1014.7 | 83.0 | 32.5 | 1.3 |
| 2025-02-17 09:40:19 | 0.5 | 1014.7 | 80.0 | 35.7 | 0.7 |
| 2025-02-17 10:00:18 | 0.8 | 1014.7 | 77.0 | 44.1 | 2.0 |
| 2025-02-17 10:20:16 | 0.8 | 1014.4 | 78.0 | 37.5 | 1.4 |
| 2025-02-17 10:40:17 | 1.4 | 1015.1 | 76.0 | 55.7 | 1.3 |
| 2025-02-17 11:00:19 | 2.1 | 1015.1 | 74.0 | 111.1 | 1.0 |
| 2025-02-17 11:20:19 | 2.2 | 1015.1 | 74.0 | 154.3 | 0.1 |
| 2025-02-17 11:40:17 | 2.6 | 1014.7 | 70.0 | 204.2 | 1.4 |
| 2025-02-17 12:00:19 | 3.0 | 1014.4 | 68.0 | 244.6 | 1.4 |
| 2025-02-17 12:20:20 | 3.6 | 1014.4 | 66.0 | 261.4 | 0.1 |
| 2025-02-17 12:40:20 | 4.0 | 1014.4 | 62.0 | 266.3 | 2.8 |
| 2025-02-17 13:00:17 | 3.8 | 1014.1 | 60.0 | 269.5 | 2.9 |
| 2025-02-17 13:20:17 | 3.9 | 1014.1 | 58.0 | 265.2 | 3.4 |
| 2025-02-17 13:40:18 | 4.0 | 1013.7 | 57.0 | 263.9 | 3.9 |
| 2025-02-17 14:00:20 | 4.0 | 1013.4 | 60.0 | 255.0 | 3.5 |
| 2025-02-17 14:20:17 | 3.9 | 1013.4 | 57.0 | 241.7 | 3.2 |
| 2025-02-17 14:40:19 | 4.0 | 1013.7 | 61.0 | 222.1 | 4.2 |
| 2025-02-17 15:00:18 | 3.5 | 1013.4 | 62.0 | 199.6 | 3.1 |
| 2025-02-17 15:20:17 | 3.5 | 1013.4 | 61.0 | 176.2 | 1.4 |
CSV export: /station/IWELLEN5/data?period=20250217T000000/20250217T235959&format=csv&tz=GMT